Time;durP1;ratioP1;P1;durP2;ratioP2;P2;SDS_P1;SDS_P2;PMS_P1;PMS_P2;Temp;Humidity;BMP_temperature;BMP_pressure;BME280_temperature;BME280_humidity;BME280_pressure;Samples;Min_cycle;Max_cycle;Signal;HPM_P1;HPM_P2
2023/04/28 00:01:10;;;;;;;9.90;6.28;;;9.70;79.40;;;;;;4975819;28;20023;-44
2023/04/28 00:03:57;;;;;;;7.95;6.65;;;9.70;79.70;;;;;;4975106;28;20033;-44
2023/04/28 00:06:43;;;;;;;9.82;6.68;;;9.70;79.60;;;;;;4962377;28;20073;-46
2023/04/28 00:09:29;;;;;;;9.45;7.28;;;9.70;79.70;;;;;;4982445;28;20034;-46
2023/04/28 00:12:15;;;;;;;8.38;6.50;;;9.60;80.00;;;;;;4978894;28;20042;-44
2023/04/28 00:15:01;;;;;;;10.50;6.45;;;9.50;80.20;;;;;;4975092;28;20022;-47
2023/04/28 00:17:47;;;;;;;9.45;6.95;;;9.50;80.30;;;;;;4981681;28;20499;-49
2023/04/28 00:20:33;;;;;;;13.15;6.70;;;9.60;80.40;;;;;;4976738;28;20035;-46
2023/04/28 00:23:19;;;;;;;10.45;6.75;;;9.60;80.50;;;;;;4975559;28;20035;-47
2023/04/28 00:26:05;;;;;;;10.85;6.63;;;9.60;80.40;;;;;;4975560;28;20111;-44
2023/04/28 00:28:51;;;;;;;15.98;7.10;;;9.50;80.60;;;;;;4970955;28;20062;-46
2023/04/28 00:31:36;;;;;;;8.85;6.88;;;9.50;80.70;;;;;;4974017;28;20038;-43
2023/04/28 00:34:22;;;;;;;7.88;6.63;;;9.50;81.30;;;;;;4974246;28;20027;-45
2023/04/28 00:37:08;;;;;;;8.15;6.53;;;9.50;80.90;;;;;;4976029;28;20065;-45
2023/04/28 00:39:55;;;;;;;11.15;7.28;;;9.40;81.20;;;;;;4955921;29;20040;-42
2023/04/28 00:42:41;;;;;;;9.35;7.15;;;9.40;81.40;;;;;;4966889;28;20518;-45
2023/04/28 00:45:27;;;;;;;12.20;6.93;;;9.40;81.30;;;;;;4973616;28;20042;-46
2023/04/28 00:48:13;;;;;;;10.45;7.40;;;9.40;81.40;;;;;;4979147;28;20029;-44
2023/04/28 00:50:59;;;;;;;7.90;6.60;;;9.40;81.70;;;;;;4955463;29;20061;-45
2023/04/28 00:53:45;;;;;;;8.25;6.47;;;9.40;81.80;;;;;;4970794;28;20035;-48
2023/04/28 00:56:31;;;;;;;9.70;7.40;;;9.40;81.50;;;;;;4969785;28;20519;-46
2023/04/28 00:59:17;;;;;;;20.63;6.93;;;9.40;81.90;;;;;;4973315;28;20346;-45
2023/04/28 01:02:05;;;;;;;8.15;6.97;;;9.40;81.80;;;;;;4973659;28;20039;-46
2023/04/28 01:04:53;;;;;;;8.95;6.80;;;9.30;82.20;;;;;;4972687;28;20026;-43
2023/04/28 01:07:39;;;;;;;10.13;7.20;;;9.30;82.30;;;;;;4988782;28;20051;-45
2023/04/28 01:10:25;;;;;;;8.70;7.00;;;9.30;82.80;;;;;;4973661;28;20073;-43
2023/04/28 01:13:11;;;;;;;9.35;7.05;;;9.30;82.70;;;;;;4975060;28;20099;-45
2023/04/28 01:15:57;;;;;;;9.65;7.18;;;9.30;82.70;;;;;;4974841;28;20082;-45
2023/04/28 01:18:47;;;;;;;12.68;7.30;;;9.30;82.80;;;;;;4944471;28;20403;-45
2023/04/28 01:21:33;;;;;;;10.23;7.35;;;9.30;82.90;;;;;;4952734;28;20031;-48
2023/04/28 01:24:19;;;;;;;10.30;7.15;;;9.30;82.80;;;;;;4967503;28;20027;-47
2023/04/28 01:27:05;;;;;;;11.55;7.10;;;9.30;83.30;;;;;;4973182;28;20038;-45
2023/04/28 01:29:51;;;;;;;10.57;7.32;;;9.20;83.40;;;;;;4973750;28;20074;-47
2023/04/28 01:32:37;;;;;;;11.70;7.30;;;9.20;83.50;;;;;;4975696;28;20075;-47
2023/04/28 01:35:23;;;;;;;11.43;7.88;;;9.20;83.70;;;;;;4977076;28;20026;-48
2023/04/28 01:38:09;;;;;;;10.25;7.53;;;9.10;83.70;;;;;;4973258;28;20081;-43
2023/04/28 01:40:55;;;;;;;13.15;7.80;;;9.10;84.10;;;;;;4973526;28;20040;-43
2023/04/28 01:43:42;;;;;;;13.35;7.65;;;9.10;84.10;;;;;;4973367;28;20027;-44
2023/04/28 01:46:28;;;;;;;11.13;7.47;;;9.20;84.20;;;;;;4972080;28;20023;-45
2023/04/28 01:49:14;;;;;;;11.73;7.13;;;9.20;84.00;;;;;;4977398;28;20121;-43
2023/04/28 01:52:00;;;;;;;9.40;7.95;;;9.20;84.30;;;;;;4975134;28;20031;-44
2023/04/28 01:54:46;;;;;;;11.57;7.82;;;9.30;84.90;;;;;;4971743;28;20058;-44
2023/04/28 01:57:34;;;;;;;10.23;8.38;;;9.20;84.20;;;;;;4974284;28;20030;-47
2023/04/28 02:00:20;;;;;;;11.85;7.50;;;9.10;84.50;;;;;;4973509;28;20082;-49
2023/04/28 02:03:06;;;;;;;12.07;8.60;;;9.00;84.70;;;;;;4974509;28;20026;-49
2023/04/28 02:05:52;;;;;;;11.57;8.13;;;9.00;84.90;;;;;;4974654;28;20035;-44
2023/04/28 02:08:38;;;;;;;10.68;8.60;;;9.00;84.80;;;;;;4974635;28;20034;-42
2023/04/28 02:11:23;;;;;;;10.60;7.68;;;9.00;85.10;;;;;;4971717;28;20041;-44
2023/04/28 02:14:09;;;;;;;12.70;8.48;;;9.00;85.70;;;;;;4973812;28;20034;-47
2023/04/28 02:16:55;;;;;;;11.07;8.20;;;9.00;85.30;;;;;;4954584;28;20031;-48
2023/04/28 02:19:41;;;;;;;11.95;8.57;;;9.00;85.50;;;;;;4971149;28;20046;-47
2023/04/28 02:22:27;;;;;;;11.70;8.05;;;8.90;85.70;;;;;;4982613;28;20566;-46
2023/04/28 02:25:13;;;;;;;11.23;9.00;;;8.90;85.80;;;;;;4972597;28;20039;-43
2023/04/28 02:27:59;;;;;;;11.75;8.30;;;8.90;86.20;;;;;;4972895;28;20076;-45
2023/04/28 02:30:45;;;;;;;11.73;7.80;;;9.00;86.20;;;;;;4972347;28;20121;-44
2023/04/28 02:33:31;;;;;;;11.63;8.05;;;8.90;86.20;;;;;;4973899;28;20034;-45
2023/04/28 02:36:17;;;;;;;12.63;9.50;;;8.90;86.40;;;;;;4982904;28;20032;-46
2023/04/28 02:39:03;;;;;;;12.85;8.80;;;8.90;86.90;;;;;;4983700;28;20134;-45
2023/04/28 02:41:49;;;;;;;10.05;8.48;;;8.70;86.50;;;;;;4974126;28;20045;-49
2023/04/28 02:44:35;;;;;;;13.25;9.38;;;8.70;86.80;;;;;;4973952;28;20034;-42
2023/04/28 02:47:21;;;;;;;11.40;9.10;;;8.70;87.00;;;;;;4973235;28;20031;-52
2023/04/28 02:50:07;;;;;;;11.52;8.80;;;8.70;87.20;;;;;;4978259;28;20026;-43
2023/04/28 02:52:53;;;;;;;10.85;9.15;;;8.60;87.60;;;;;;4984678;28;20050;-47
2023/04/28 02:55:39;;;;;;;14.80;9.82;;;8.60;87.70;;;;;;4959325;28;20042;-47
2023/04/28 02:58:25;;;;;;;13.57;9.95;;;8.70;87.80;;;;;;4971299;28;20043;-46
2023/04/28 03:01:11;;;;;;;16.33;9.30;;;8.60;88.20;;;;;;4958360;28;20035;-51
2023/04/28 03:03:57;;;;;;;14.48;10.00;;;8.60;88.30;;;;;;4970812;28;20142;-45
2023/04/28 03:06:43;;;;;;;11.70;8.88;;;8.60;88.30;;;;;;4971958;28;20038;-44
2023/04/28 03:09:29;;;;;;;14.23;9.80;;;8.60;88.40;;;;;;4972034;28;20508;-46
2023/04/28 03:12:15;;;;;;;14.35;9.55;;;8.60;88.30;;;;;;4972222;28;20031;-44
2023/04/28 03:15:01;;;;;;;12.50;9.60;;;8.50;88.30;;;;;;4973621;28;20085;-47
2023/04/28 03:17:47;;;;;;;14.13;9.73;;;8.50;88.40;;;;;;4971748;28;20054;-43
2023/04/28 03:20:33;;;;;;;16.98;10.85;;;8.50;88.60;;;;;;4972269;28;20085;-45
2023/04/28 03:23:19;;;;;;;12.43;9.75;;;8.50;88.60;;;;;;4979853;28;20039;-46
2023/04/28 03:26:05;;;;;;;13.95;10.60;;;8.50;88.80;;;;;;4981996;28;20034;-44
2023/04/28 03:28:51;;;;;;;13.13;10.18;;;8.50;88.90;;;;;;4972042;28;20505;-45
2023/04/28 03:31:37;;;;;;;16.38;10.43;;;8.50;89.10;;;;;;4971551;28;20412;-46
2023/04/28 03:34:23;;;;;;;16.15;10.45;;;8.40;89.00;;;;;;4974960;28;20451;-45
2023/04/28 03:37:09;;;;;;;13.52;10.63;;;8.30;90.00;;;;;;4979618;28;20042;-49
2023/04/28 03:39:55;;;;;;;12.80;10.68;;;8.20;90.10;;;;;;4975455;28;20062;-47
2023/04/28 03:42:41;;;;;;;14.55;10.93;;;8.20;90.10;;;;;;4975311;28;20035;-47
2023/04/28 03:45:27;;;;;;;13.00;11.00;;;8.10;90.50;;;;;;4975470;28;20453;-46
2023/04/28 03:48:13;;;;;;;12.73;10.73;;;8.20;90.40;;;;;;4962976;28;20022;-47
2023/04/28 03:50:59;;;;;;;14.30;11.10;;;8.20;90.30;;;;;;4975235;28;20399;-49
2023/04/28 03:53:45;;;;;;;15.27;11.77;;;8.30;90.50;;;;;;4975141;28;20035;-45
2023/04/28 03:56:31;;;;;;;32.97;21.70;;;8.30;90.30;;;;;;4975295;28;20031;-43
2023/04/28 03:59:17;;;;;;;28.27;20.67;;;8.30;90.40;;;;;;4974937;28;20066;-44
2023/04/28 04:02:03;;;;;;;17.55;12.93;;;8.30;90.50;;;;;;4978694;28;20034;-44
2023/04/28 04:04:49;;;;;;;18.67;12.32;;;8.30;90.50;;;;;;4978168;28;20058;-43
2023/04/28 04:07:35;;;;;;;15.70;11.43;;;8.30;90.50;;;;;;4981616;28;20177;-43
2023/04/28 04:10:21;;;;;;;14.38;12.13;;;8.40;90.60;;;;;;4970537;28;20031;-44
2023/04/28 04:13:07;;;;;;;18.60;11.57;;;8.40;90.60;;;;;;4975246;28;20097;-46
2023/04/28 04:15:53;;;;;;;16.55;12.05;;;8.40;90.60;;;;;;4975407;28;20514;-42
2023/04/28 04:18:39;;;;;;;13.48;11.25;;;8.40;90.80;;;;;;4973886;28;20023;-43
2023/04/28 04:21:26;;;;;;;17.00;11.30;;;8.40;90.90;;;;;;4974796;28;20037;-48
2023/04/28 04:24:12;;;;;;;15.55;11.98;;;8.50;90.80;;;;;;4959155;28;20027;-45
2023/04/28 04:26:58;;;;;;;13.30;11.90;;;8.50;90.90;;;;;;4974291;28;20427;-47
2023/04/28 04:29:44;;;;;;;16.15;12.00;;;8.50;90.80;;;;;;4962242;28;20035;-51
2023/04/28 04:32:30;;;;;;;15.55;12.57;;;8.50;90.90;;;;;;4974256;28;20039;-46
2023/04/28 04:35:16;;;;;;;16.85;13.35;;;8.50;90.90;;;;;;4973401;28;20027;-44
2023/04/28 04:38:02;;;;;;;16.73;13.00;;;8.50;91.00;;;;;;4976789;28;20031;-44
2023/04/28 04:40:48;;;;;;;14.73;12.50;;;8.50;90.90;;;;;;4978641;28;20037;-45
2023/04/28 04:43:34;;;;;;;16.85;12.90;;;8.50;91.00;;;;;;4976652;28;20038;-46
2023/04/28 04:46:20;;;;;;;16.75;12.48;;;8.50;91.00;;;;;;4981385;28;20089;-49
2023/04/28 04:49:06;;;;;;;14.88;12.88;;;8.50;91.10;;;;;;4980929;28;20045;-43
2023/04/28 04:51:52;;;;;;;18.48;12.80;;;8.60;91.10;;;;;;4979390;28;20134;-45
2023/04/28 04:54:38;;;;;;;14.93;13.32;;;8.70;91.00;;;;;;4974517;28;20030;-46
2023/04/28 04:57:24;;;;;;;18.92;12.98;;;8.70;90.90;;;;;;4974644;28;20093;-43
2023/04/28 05:00:11;;;;;;;17.02;13.32;;;8.70;90.90;;;;;;4973755;28;20035;-48
2023/04/28 05:02:57;;;;;;;18.60;12.77;;;8.80;90.90;;;;;;4959695;28;20031;-46
2023/04/28 05:05:44;;;;;;;17.02;12.65;;;8.90;90.80;;;;;;4973416;28;20090;-45
2023/04/28 05:08:30;;;;;;;14.68;13.13;;;8.80;90.90;;;;;;4973977;28;20049;-47
2023/04/28 05:11:16;;;;;;;18.10;13.05;;;8.90;91.10;;;;;;4954829;28;20067;-43
2023/04/28 05:14:02;;;;;;;17.23;13.93;;;9.00;91.00;;;;;;4977265;28;20037;-47
2023/04/28 05:16:48;;;;;;;19.90;14.30;;;9.10;90.80;;;;;;4965811;28;20019;-47
2023/04/28 05:19:34;;;;;;;21.02;15.00;;;9.10;90.90;;;;;;4971790;28;20035;-46
2023/04/28 05:22:20;;;;;;;21.55;15.32;;;9.20;90.80;;;;;;4971935;28;20035;-48
2023/04/28 05:25:06;;;;;;;20.67;15.93;;;9.20;90.60;;;;;;4973230;28;20118;-51
2023/04/28 05:27:52;;;;;;;16.20;14.10;;;9.30;90.50;;;;;;4960530;28;20036;-46
2023/04/28 05:30:38;;;;;;;22.90;15.00;;;9.40;90.60;;;;;;4954393;28;20070;-47
2023/04/28 05:33:24;;;;;;;17.80;13.50;;;9.30;90.60;;;;;;4960062;28;20030;-52
2023/04/28 05:36:10;;;;;;;23.40;14.20;;;9.40;90.40;;;;;;4960026;28;20198;-50
2023/04/28 05:38:56;;;;;;;17.88;14.43;;;9.50;90.40;;;;;;4971888;28;20110;-51
2023/04/28 05:41:42;;;;;;;17.45;14.00;;;9.60;90.40;;;;;;4981711;28;20384;-49
2023/04/28 05:44:28;;;;;;;17.83;13.90;;;9.60;90.30;;;;;;4973647;28;20119;-47
2023/04/28 05:47:14;;;;;;;18.42;13.90;;;9.60;90.20;;;;;;4973094;28;20031;-47
2023/04/28 05:50:00;;;;;;;20.42;14.07;;;9.70;90.00;;;;;;4973940;28;20113;-46
2023/04/28 05:52:46;;;;;;;17.58;14.25;;;9.80;90.10;;;;;;4971198;28;20040;-53
2023/04/28 05:55:32;;;;;;;16.35;14.45;;;9.80;90.00;;;;;;4974358;28;20026;-49
2023/04/28 05:58:18;;;;;;;19.48;14.50;;;9.90;89.90;;;;;;4966689;28;20088;-46
2023/04/28 06:01:04;;;;;;;17.38;14.80;;;9.90;89.80;;;;;;4970876;28;20099;-49
2023/04/28 06:03:52;;;;;;;16.90;13.95;;;9.90;89.70;;;;;;4973032;28;20482;-47
2023/04/28 06:06:38;;;;;;;18.05;13.82;;;9.80;89.40;;;;;;4972475;28;20381;-52
2023/04/28 06:09:24;;;;;;;18.67;14.73;;;9.90;90.00;;;;;;4953417;28;20032;-45
2023/04/28 06:12:10;;;;;;;16.65;14.50;;;9.90;90.30;;;;;;4971038;28;20415;-48
2023/04/28 06:14:56;;;;;;;27.17;16.27;;;10.00;90.20;;;;;;4979756;28;20025;-49
2023/04/28 06:17:42;;;;;;;18.23;15.20;;;10.10;90.30;;;;;;4972661;28;20039;-47
2023/04/28 06:20:28;;;;;;;17.98;14.70;;;10.20;90.30;;;;;;4971356;28;20495;-47
2023/04/28 06:23:14;;;;;;;18.42;14.77;;;10.30;90.30;;;;;;4973102;28;20540;-46
2023/04/28 06:26:00;;;;;;;16.38;14.50;;;10.40;90.20;;;;;;4971638;28;20064;-49
2023/04/28 06:28:46;;;;;;;17.60;15.02;;;10.40;90.60;;;;;;4964403;28;20495;-44
2023/04/28 06:31:32;;;;;;;23.70;15.98;;;10.40;90.30;;;;;;4983803;28;20034;-49
2023/04/28 06:34:18;;;;;;;20.20;14.73;;;10.50;90.30;;;;;;4991291;28;20053;-48
2023/04/28 06:37:04;;;;;;;16.42;14.25;;;10.40;90.30;;;;;;4974342;28;20026;-50
2023/04/28 06:39:50;;;;;;;19.50;15.05;;;10.50;90.40;;;;;;4972588;28;20031;-52
2023/04/28 06:42:36;;;;;;;25.80;15.85;;;10.60;90.30;;;;;;4981996;28;20079;-46
2023/04/28 06:45:22;;;;;;;18.63;15.30;;;10.70;90.00;;;;;;4963382;28;20110;-47
2023/04/28 06:48:09;;;;;;;19.50;13.82;;;10.80;89.70;;;;;;4961973;28;20044;-49
2023/04/28 06:50:55;;;;;;;19.50;14.18;;;10.80;89.30;;;;;;4966362;28;20039;-47
2023/04/28 06:53:41;;;;;;;20.20;14.73;;;10.90;89.50;;;;;;4977841;28;20406;-46
2023/04/28 06:56:27;;;;;;;17.98;14.60;;;10.90;88.80;;;;;;4974589;28;20026;-48
2023/04/28 06:59:12;;;;;;;19.52;14.07;;;11.00;88.90;;;;;;4966509;28;20567;-48
2023/04/28 07:01:58;;;;;;;19.98;13.70;;;11.10;88.80;;;;;;4985705;28;20070;-49
2023/04/28 07:04:44;;;;;;;17.80;13.10;;;11.20;88.80;;;;;;4975115;28;20037;-45
2023/04/28 07:07:31;;;;;;;22.10;14.35;;;11.30;88.60;;;;;;4966011;28;20039;-47
2023/04/28 07:10:17;;;;;;;31.73;15.48;;;11.40;88.80;;;;;;4962326;28;20085;-46
2023/04/28 07:13:03;;;;;;;22.10;13.25;;;11.40;88.40;;;;;;4978308;28;20034;-46
2023/04/28 07:15:48;;;;;;;19.42;13.88;;;11.40;87.30;;;;;;4946594;28;20084;-47
2023/04/28 07:18:34;;;;;;;16.00;12.57;;;11.20;86.90;;;;;;4975626;28;20035;-48
2023/04/28 07:21:20;;;;;;;18.35;12.80;;;11.30;87.10;;;;;;4971626;28;20153;-46
2023/04/28 07:24:06;;;;;;;15.13;11.88;;;11.40;87.20;;;;;;4967665;28;20100;-48
2023/04/28 07:26:53;;;;;;;13.48;11.32;;;11.50;87.10;;;;;;4972242;28;20080;-46
2023/04/28 07:29:39;;;;;;;15.60;12.20;;;11.70;87.20;;;;;;4981664;28;20038;-49
2023/04/28 07:32:25;;;;;;;17.83;13.52;;;11.90;87.20;;;;;;4974252;28;20174;-47
2023/04/28 07:35:11;;;;;;;14.80;12.82;;;12.10;86.90;;;;;;4975393;28;20105;-48
2023/04/28 07:37:57;;;;;;;17.48;13.07;;;12.10;86.80;;;;;;4970667;28;20574;-47
2023/04/28 07:40:43;;;;;;;14.98;11.63;;;12.30;86.60;;;;;;4967343;28;20143;-45
2023/04/28 07:43:29;;;;;;;15.15;11.70;;;12.30;86.40;;;;;;4979935;28;20030;-46
2023/04/28 07:46:15;;;;;;;22.15;13.68;;;12.40;86.20;;;;;;4972050;28;20046;-50
2023/04/28 07:49:01;;;;;;;16.77;12.50;;;12.40;85.40;;;;;;4953473;28;20031;-48
2023/04/28 07:51:48;;;;;;;18.70;12.70;;;12.40;86.10;;;;;;4963695;28;20400;-45
2023/04/28 07:54:34;;;;;;;16.25;13.02;;;12.40;86.40;;;;;;4966529;28;20512;-51
2023/04/28 07:57:20;;;;;;;17.25;12.15;;;12.50;85.90;;;;;;4979626;28;20039;-48
2023/04/28 08:00:07;;;;;;;16.88;12.18;;;12.50;85.10;;;;;;4968641;28;20031;-50
2023/04/28 08:02:53;;;;;;;18.10;12.05;;;12.60;84.90;;;;;;4965864;28;20403;-46
2023/04/28 08:05:39;;;;;;;21.40;12.23;;;12.60;84.70;;;;;;4971597;28;20030;-50
2023/04/28 08:08:26;;;;;;;16.13;10.98;;;12.60;84.30;;;;;;4964651;28;20043;-47
2023/04/28 08:11:11;;;;;;;23.48;11.93;;;12.60;84.30;;;;;;4961657;28;20035;-45
2023/04/28 08:14:01;;;;;;;19.38;11.27;;;12.60;84.50;;;;;;4959840;28;20059;-46
2023/04/28 08:16:47;;;;;;;20.45;10.77;;;12.60;84.60;;;;;;4962826;28;20039;-47
2023/04/28 08:19:33;;;;;;;16.35;11.38;;;12.70;91.60;;;;;;4967839;28;20500;-48
2023/04/28 08:22:19;;;;;;;19.20;10.82;;;13.00;90.10;;;;;;4974540;28;20054;-51
2023/04/28 08:25:05;;;;;;;14.25;11.02;;;13.20;87.70;;;;;;4974032;28;20023;-51
2023/04/28 08:27:52;;;;;;;17.90;11.43;;;13.20;87.10;;;;;;4979667;28;20384;-47
2023/04/28 08:30:37;;;;;;;21.65;14.15;;;13.30;86.50;;;;;;4980102;28;20039;-50
2023/04/28 08:33:23;;;;;;;18.90;12.57;;;13.30;86.50;;;;;;4963053;28;20086;-47
2023/04/28 08:36:10;;;;;;;16.23;11.05;;;13.30;86.10;;;;;;4969745;28;20090;-49
2023/04/28 08:38:58;;;;;;;17.77;11.30;;;13.40;86.20;;;;;;4978919;28;20106;-46
2023/04/28 08:41:44;;;;;;;16.95;11.73;;;13.20;85.80;;;;;;4973059;28;20106;-49
2023/04/28 08:44:38;;;;;;;17.85;10.57;;;13.10;86.10;;;;;;4970147;28;20134;-48
2023/04/28 08:47:33;;;;;;;14.90;10.68;;;13.10;86.80;;;;;;4962753;28;20407;-45
2023/04/28 08:50:24;;;;;;;17.35;11.70;;;13.10;87.00;;;;;;4984800;28;20035;-45
2023/04/28 08:53:12;;;;;;;17.40;11.73;;;13.00;87.60;;;;;;4972285;28;20027;-49
2023/04/28 08:55:59;;;;;;;17.48;11.35;;;12.90;88.00;;;;;;4972612;28;20053;-49
2023/04/28 08:58:45;;;;;;;15.27;10.98;;;12.90;88.60;;;;;;4968024;28;20027;-46
2023/04/28 09:01:31;;;;;;;20.55;12.68;;;13.00;89.20;;;;;;4973989;28;20093;-47
2023/04/28 09:04:17;;;;;;;15.07;11.75;;;13.00;89.10;;;;;;4969091;28;20038;-50
2023/04/28 09:07:09;;;;;;;15.98;12.00;;;13.10;88.90;;;;;;4969074;28;20027;-47
2023/04/28 09:10:15;;;;;;;14.73;11.63;;;13.00;89.20;;;;;;4960458;28;20042;-47
2023/04/28 09:13:01;;;;;;;17.58;12.73;;;13.10;90.00;;;;;;4971839;28;20090;-48
2023/04/28 09:15:49;;;;;;;17.05;12.73;;;13.20;90.30;;;;;;4972644;28;20026;-51
2023/04/28 09:18:35;;;;;;;20.80;14.02;;;13.40;90.40;;;;;;4971889;28;20038;-48
2023/04/28 09:21:21;;;;;;;21.88;13.50;;;13.30;91.00;;;;;;4971436;28;20047;-45
2023/04/28 09:24:07;;;;;;;19.27;13.90;;;13.00;91.50;;;;;;4972841;28;20392;-46
2023/04/28 09:26:53;;;;;;;26.95;16.73;;;13.10;91.40;;;;;;4971287;28;20571;-47
2023/04/28 09:29:51;;;;;;;16.52;14.00;;;13.10;92.00;;;;;;4970819;28;20147;-51
2023/04/28 09:32:37;;;;;;;23.23;14.50;;;13.00;91.70;;;;;;4971975;28;20026;-49
2023/04/28 09:35:40;;;;;;;24.70;17.55;;;12.90;92.10;;;;;;4976162;28;20026;-49
2023/04/28 09:38:25;;;;;;;19.20;14.65;;;12.90;92.20;;;;;;4968532;28;20034;-52
2023/04/28 09:41:11;;;;;;;18.98;15.05;;;12.90;92.40;;;;;;4971447;28;20031;-47
2023/04/28 09:44:20;;;;;;;19.70;15.32;;;12.80;92.90;;;;;;4971728;28;20410;-48
2023/04/28 09:47:21;;;;;;;19.65;15.05;;;12.80;92.90;;;;;;4971953;28;20030;-47
2023/04/28 09:50:10;;;;;;;18.77;14.95;;;12.90;93.10;;;;;;4970451;28;20386;-47
2023/04/28 09:52:57;;;;;;;24.67;14.55;;;12.80;93.30;;;;;;4971390;28;20525;-47
2023/04/28 09:55:46;;;;;;;19.73;15.50;;;12.90;93.60;;;;;;4971544;28;20035;-48
2023/04/28 09:58:34;;;;;;;18.80;15.55;;;13.00;93.60;;;;;;4972392;28;20082;-48
2023/04/28 10:01:20;;;;;;;21.45;15.07;;;12.90;94.00;;;;;;4972371;28;20041;-46
2023/04/28 10:04:07;;;;;;;22.17;16.20;;;12.90;94.10;;;;;;4970741;28;20039;-47
2023/04/28 10:06:55;;;;;;;21.85;16.13;;;13.00;94.50;;;;;;4969905;28;20151;-48
2023/04/28 10:09:48;;;;;;;19.83;15.80;;;13.10;94.80;;;;;;4969603;28;20495;-45
2023/04/28 10:12:37;;;;;;;18.88;16.30;;;13.20;94.90;;;;;;4969640;28;20019;-48
2023/04/28 10:15:22;;;;;;;19.15;16.23;;;13.10;95.20;;;;;;4970648;28;20030;-47
2023/04/28 10:18:11;;;;;;;18.90;15.23;;;13.10;97.00;;;;;;4969370;28;20109;-50
2023/04/28 10:20:59;;;;;;;26.92;17.52;;;13.20;98.40;;;;;;4970890;28;20034;-49
2023/04/28 10:24:08;;;;;;;19.95;16.05;;;13.30;98.30;;;;;;4971147;28;20023;-49
2023/04/28 10:27:04;;;;;;;22.55;17.65;;;13.30;98.90;;;;;;4970805;28;20105;-47
2023/04/28 10:29:50;;;;;;;20.02;15.98;;;13.30;98.70;;;;;;4970772;28;20146;-48
2023/04/28 10:32:36;;;;;;;19.40;16.50;;;13.30;98.60;;;;;;4971383;28;20051;-46
2023/04/28 10:35:35;;;;;;;22.90;15.73;;;13.40;98.40;;;;;;4970153;28;20042;-46
2023/04/28 10:38:21;;;;;;;18.65;14.40;;;13.40;98.80;;;;;;4971257;28;20053;-46
2023/04/28 10:41:35;;;;;;;18.73;16.17;;;13.50;98.60;;;;;;4970818;28;20121;-53
2023/04/28 10:44:27;;;;;;;17.92;14.98;;;13.50;98.70;;;;;;4970664;28;20031;-51
2023/04/28 10:47:13;;;;;;;22.15;14.52;;;13.60;99.30;;;;;;4967654;28;20034;-49
2023/04/28 10:50:07;;;;;;;18.75;14.90;;;13.70;98.70;;;;;;4968572;28;20407;-47
2023/04/28 10:52:53;;;;;;;21.60;15.55;;;13.80;98.50;;;;;;4969699;28;20026;-46
2023/04/28 10:55:39;;;;;;;21.85;14.85;;;13.80;99.80;;;;;;4968898;28;20022;-46
2023/04/28 10:58:28;;;;;;;21.23;15.57;;;13.80;99.50;;;;;;4971177;28;20033;-46
2023/04/28 11:01:20;;;;;;;20.10;15.07;;;13.80;99.00;;;;;;4971239;28;20538;-47
2023/04/28 11:04:11;;;;;;;20.00;16.02;;;13.90;98.90;;;;;;4970455;28;20162;-48
2023/04/28 11:07:15;;;;;;;18.75;15.20;;;13.80;98.90;;;;;;4970568;28;20035;-48
2023/04/28 11:10:01;;;;;;;21.33;17.02;;;13.70;99.30;;;;;;4969057;28;20506;-52
2023/04/28 11:13:25;;;;;;;20.08;16.65;;;13.60;99.90;;;;;;4946557;28;20027;-53
2023/04/28 11:16:19;;;;;;;22.13;17.65;;;13.60;99.90;;;;;;4962517;28;20031;-52
2023/04/28 11:19:09;;;;;;;21.52;16.50;;;13.60;99.90;;;;;;4944517;28;20070;-51
2023/04/28 11:21:57;;;;;;;23.63;18.77;;;13.50;99.90;;;;;;4955541;28;20395;-49
2023/04/28 11:25:01;;;;;;;24.35;19.45;;;13.50;99.90;;;;;;4954008;28;20539;-51
2023/04/28 11:27:47;;;;;;;22.30;18.20;;;13.50;99.90;;;;;;4958852;28;20101;-47
2023/04/28 11:30:33;;;;;;;21.10;17.13;;;13.50;99.90;;;;;;4956503;28;20393;-49
2023/04/28 11:33:19;;;;;;;21.17;17.38;;;13.50;99.90;;;;;;4958995;28;20039;-49
2023/04/28 11:36:05;;;;;;;19.20;17.15;;;13.50;99.90;;;;;;4963722;28;20059;-48
2023/04/28 11:38:51;;;;;;;22.15;16.77;;;13.50;99.90;;;;;;4953993;28;20030;-52
2023/04/28 11:41:39;;;;;;;22.92;16.67;;;13.50;99.90;;;;;;4971833;28;20035;-47
2023/04/28 11:44:29;;;;;;;19.65;16.20;;;13.40;99.90;;;;;;4953264;28;20115;-51
2023/04/28 11:47:14;;;;;;;19.33;17.17;;;13.50;99.90;;;;;;4971454;28;20031;-46
2023/04/28 11:50:01;;;;;;;20.42;16.13;;;13.60;99.90;;;;;;4972024;28;20035;-51
2023/04/28 11:52:50;;;;;;;16.80;14.73;;;13.50;99.90;;;;;;4971791;28;20026;-50
2023/04/28 11:55:36;;;;;;;16.17;14.35;;;13.50;99.90;;;;;;4973669;28;20512;-53
2023/04/28 11:58:23;;;;;;;16.85;14.43;;;13.40;99.90;;;;;;4975212;28;20027;-46
2023/04/28 12:01:10;;;;;;;17.95;15.30;;;13.40;99.90;;;;;;4960784;28;20023;-47
2023/04/28 12:03:56;;;;;;;21.77;15.82;;;13.50;99.90;;;;;;4970808;28;20039;-51
2023/04/28 12:06:42;;;;;;;19.33;15.82;;;13.50;99.90;;;;;;4974049;28;20056;-52
2023/04/28 12:09:29;;;;;;;20.67;15.77;;;13.50;99.90;;;;;;4974940;28;20042;-46
2023/04/28 12:12:28;;;;;;;17.08;15.27;;;13.50;99.90;;;;;;4974785;28;20034;-46
2023/04/28 12:15:14;;;;;;;15.55;13.88;;;13.60;99.90;;;;;;4974967;28;20034;-47
2023/04/28 12:18:10;;;;;;;22.95;14.88;;;13.60;99.90;;;;;;4974960;28;20031;-52
2023/04/28 12:20:56;;;;;;;21.90;14.98;;;13.80;99.90;;;;;;4973090;28;20053;-50
2023/04/28 12:23:42;;;;;;;19.35;16.58;;;13.70;99.90;;;;;;4976960;28;20026;-50
2023/04/28 12:26:28;;;;;;;19.33;15.32;;;13.70;99.90;;;;;;4970867;28;20035;-48
2023/04/28 12:29:36;;;;;;;16.60;13.40;;;13.80;99.90;;;;;;4968586;28;20031;-47
2023/04/28 12:32:56;;;;;;;21.15;14.15;;;13.90;99.90;;;;;;4963941;28;20491;-55
2023/04/28 12:35:42;;;;;;;13.75;12.30;;;13.70;99.90;;;;;;4945767;28;20504;-46
2023/04/28 12:38:28;;;;;;;16.00;12.30;;;13.70;99.90;;;;;;4962488;28;20059;-47
2023/04/28 12:41:14;;;;;;;15.63;12.23;;;13.70;99.90;;;;;;4967816;28;20066;-48
2023/04/28 12:44:00;;;;;;;15.13;13.20;;;13.50;99.90;;;;;;4958995;28;20058;-47
2023/04/28 12:46:47;;;;;;;15.25;12.68;;;13.50;99.90;;;;;;4966521;28;20042;-49
2023/04/28 12:49:34;;;;;;;15.48;12.43;;;13.60;99.90;;;;;;4974785;28;20035;-50
2023/04/28 12:52:21;;;;;;;16.40;12.10;;;13.60;99.90;;;;;;4974785;28;20077;-49
2023/04/28 12:55:07;;;;;;;14.15;12.32;;;13.60;99.90;;;;;;4972682;28;20034;-49
2023/04/28 12:57:54;;;;;;;13.48;12.05;;;13.60;99.90;;;;;;4972903;28;20034;-53
2023/04/28 13:00:40;;;;;;;15.63;12.00;;;13.70;99.90;;;;;;4968014;28;20113;-60
2023/04/28 13:03:27;;;;;;;17.05;12.43;;;13.90;99.90;;;;;;4971181;28;20039;-52
2023/04/28 13:06:13;;;;;;;15.90;12.52;;;14.00;99.90;;;;;;4973021;28;20034;-45
2023/04/28 13:08:59;;;;;;;15.13;12.48;;;14.00;99.90;;;;;;4965235;28;20027;-49
2023/04/28 13:11:45;;;;;;;13.85;11.50;;;13.90;99.90;;;;;;4964617;28;20067;-46
2023/04/28 13:14:31;;;;;;;16.35;12.45;;;13.90;99.90;;;;;;4976096;28;20085;-46
2023/04/28 13:17:17;;;;;;;15.68;11.70;;;14.00;99.90;;;;;;4976416;28;20027;-50
2023/04/28 13:20:04;;;;;;;13.32;10.88;;;14.10;99.90;;;;;;4976324;28;20090;-51
2023/04/28 13:22:51;;;;;;;12.98;11.50;;;14.10;99.90;;;;;;4972465;28;20534;-49
2023/04/28 13:25:36;;;;;;;13.88;11.35;;;14.10;99.90;;;;;;4976232;28;20104;-49
2023/04/28 13:28:23;;;;;;;13.55;11.73;;;14.00;99.90;;;;;;4979129;28;20504;-49
2023/04/28 13:31:08;;;;;;;15.65;11.73;;;14.00;99.90;;;;;;4972712;28;20034;-48
2023/04/28 13:33:55;;;;;;;15.40;11.88;;;13.70;99.90;;;;;;4974034;28;20031;-48
2023/04/28 13:36:41;;;;;;;18.85;12.40;;;13.60;99.90;;;;;;4971909;28;20027;-49
2023/04/28 13:39:27;;;;;;;14.55;11.20;;;13.50;99.90;;;;;;4973986;28;20034;-50
2023/04/28 13:42:14;;;;;;;14.50;11.68;;;13.50;99.90;;;;;;4954943;28;20054;-47
2023/04/28 13:45:00;;;;;;;14.13;12.23;;;13.40;99.90;;;;;;4958126;28;20085;-52
2023/04/28 13:47:47;;;;;;;15.60;11.93;;;13.40;99.90;;;;;;4973126;28;20527;-48
2023/04/28 13:50:33;;;;;;;15.98;12.20;;;13.40;99.90;;;;;;4973083;28;20055;-45
2023/04/28 13:53:19;;;;;;;13.93;11.98;;;13.40;99.90;;;;;;4972056;28;20058;-49
2023/04/28 13:56:06;;;;;;;19.73;15.70;;;13.40;99.90;;;;;;4973168;28;20520;-53
2023/04/28 13:58:52;;;;;;;19.67;13.75;;;13.40;99.90;;;;;;4972400;28;20027;-50
2023/04/28 14:01:38;;;;;;;16.10;11.95;;;13.40;99.90;;;;;;4973276;28;20069;-48
2023/04/28 14:04:24;;;;;;;14.25;12.30;;;13.40;99.90;;;;;;4972884;28;20070;-50
2023/04/28 14:07:09;;;;;;;15.55;12.23;;;13.40;99.90;;;;;;4973311;28;20035;-49
2023/04/28 14:09:55;;;;;;;12.48;11.18;;;13.40;99.90;;;;;;4972089;28;20460;-47
2023/04/28 14:12:42;;;;;;;14.77;11.88;;;13.40;99.90;;;;;;4973284;28;20404;-47
2023/04/28 14:15:29;;;;;;;13.07;11.32;;;13.50;99.90;;;;;;4952969;28;20039;-53